createdAt,value
2019-04-29T00:05:45.066Z,5.87
2019-04-29T00:12:31.317Z,3.90
2019-04-29T00:19:24.535Z,4.63
2019-04-29T00:26:10.102Z,3.90
2019-04-29T00:32:55.335Z,6.03
2019-04-29T00:39:51.415Z,4.53
2019-04-29T00:46:36.703Z,5.50
2019-04-29T00:53:21.707Z,7.20
2019-04-29T01:00:08.314Z,5.60
2019-04-29T01:06:55.115Z,5.80
2019-04-29T01:13:39.968Z,6.30
2019-04-29T01:20:24.822Z,4.43
2019-04-29T01:27:11.384Z,7.95
2019-04-29T01:33:57.930Z,7.00
2019-04-29T01:40:47.878Z,8.63
2019-04-29T01:47:32.747Z,10.03
2019-04-29T01:54:17.730Z,4.83
2019-04-29T02:01:02.699Z,7.27
2019-04-29T02:07:47.911Z,7.83
2019-04-29T02:14:33.079Z,6.47
2019-04-29T02:21:18.107Z,5.67
2019-04-29T02:28:03.053Z,4.93
2019-04-29T02:34:48.546Z,6.90
2019-04-29T02:41:38.149Z,7.90
2019-04-29T02:48:23.307Z,6.97
2019-04-29T02:55:10.295Z,9.23
2019-04-29T03:02:06.677Z,7.77
2019-04-29T03:08:51.772Z,7.93
2019-04-29T03:15:39.698Z,10.27
2019-04-29T03:22:25.308Z,10.38
2019-04-29T03:29:12.038Z,7.77
2019-04-29T03:35:57.179Z,10.53
2019-04-29T03:42:43.271Z,8.57
2019-04-29T03:49:28.119Z,8.63
2019-04-29T03:56:13.279Z,10.03
2019-04-29T04:03:14.775Z,9.57
2019-04-29T04:09:59.735Z,9.87
2019-04-29T04:17:04.965Z,10.07
2019-04-29T04:23:50.027Z,9.50
2019-04-29T04:30:35.043Z,12.10
2019-04-29T04:37:20.010Z,10.50
2019-04-29T04:44:05.080Z,10.87
2019-04-29T04:50:50.049Z,9.03
2019-04-29T04:57:35.101Z,10.00
2019-04-29T05:04:20.098Z,9.80
2019-04-29T05:11:05.070Z,9.00
2019-04-29T05:17:53.033Z,8.17
2019-04-29T05:24:36.694Z,8.37
2019-04-29T05:31:21.564Z,8.60
2019-04-29T05:38:13.922Z,8.60
2019-04-29T05:45:16.863Z,10.67
2019-04-29T05:52:15.787Z,10.40
2019-04-29T05:59:00.751Z,6.93
2019-04-29T06:05:45.758Z,6.97
2019-04-29T06:12:30.902Z,9.47
2019-04-29T06:19:15.901Z,7.97
2019-04-29T06:26:01.252Z,9.30
2019-04-29T06:32:46.389Z,5.10
2019-04-29T06:39:31.632Z,12.80
2019-04-29T06:46:16.669Z,5.50
2019-04-29T06:53:02.120Z,5.90
2019-04-29T06:59:48.628Z,7.43
2019-04-29T07:06:33.675Z,7.50
2019-04-29T07:13:22.930Z,7.87
2019-04-29T07:20:06.923Z,3.70
2019-04-29T07:26:51.972Z,6.23
2019-04-29T07:33:37.050Z,6.00
2019-04-29T07:40:22.445Z,2.70
2019-04-29T07:47:07.378Z,3.33
2019-04-29T07:53:52.359Z,3.20
2019-04-29T08:00:37.552Z,4.17
2019-04-29T08:07:23.797Z,3.60
2019-04-29T08:14:08.810Z,7.53
2019-04-29T08:20:54.047Z,6.60
2019-04-29T08:27:41.862Z,4.57
2019-04-29T08:34:25.759Z,3.50
2019-04-29T08:41:10.927Z,4.10
2019-04-29T08:47:56.043Z,3.47
2019-04-29T08:54:41.254Z,3.75
2019-04-29T09:01:29.308Z,5.80
2019-04-29T09:08:13.523Z,7.35
2019-04-29T09:14:59.023Z,4.37
2019-04-29T09:21:45.733Z,5.83
2019-04-29T09:28:30.835Z,5.17
2019-04-29T09:35:16.471Z,5.70
2019-04-29T09:42:03.577Z,6.05
2019-04-29T09:48:48.942Z,4.22
2019-04-29T09:55:35.612Z,4.55
2019-04-29T10:02:37.719Z,4.37
2019-04-29T10:09:23.356Z,3.92
2019-04-29T10:16:09.983Z,5.60
2019-04-29T10:22:55.031Z,5.80
2019-04-29T10:29:41.851Z,4.97
2019-04-29T10:36:27.227Z,3.72
2019-04-29T10:43:17.285Z,5.83
2019-04-29T10:50:19.545Z,4.42
2019-04-29T10:57:05.228Z,4.05
2019-04-29T11:03:50.539Z,6.92
2019-04-29T11:10:36.113Z,6.07
2019-04-29T11:17:23.029Z,6.17
2019-04-29T11:24:09.844Z,3.98
2019-04-29T11:30:55.120Z,7.07
2019-04-29T11:37:41.312Z,5.90
2019-04-29T11:44:27.689Z,6.85
2019-04-29T11:51:20.315Z,4.05
2019-04-29T11:58:13.256Z,6.23
2019-04-29T12:05:04.273Z,5.13
2019-04-29T12:11:46.598Z,5.40
2019-04-29T12:18:33.999Z,6.97
2019-04-29T12:25:22.987Z,4.15
2019-04-29T12:32:14.201Z,2.98
2019-04-29T12:39:03.710Z,5.50
2019-04-29T12:45:53.672Z,8.03
2019-04-29T12:52:38.689Z,3.62
2019-04-29T12:59:24.659Z,5.00
2019-04-29T13:06:24.347Z,4.15
2019-04-29T13:13:11.442Z,4.53
2019-04-29T13:20:07.346Z,2.58
2019-04-29T13:26:51.007Z,3.90
2019-04-29T13:33:35.969Z,6.67
2019-04-29T13:40:21.315Z,4.97
2019-04-29T13:47:10.764Z,4.90
2019-04-29T13:53:59.792Z,5.87
2019-04-29T14:00:59.865Z,7.05
2019-04-29T14:07:43.407Z,4.42
2019-04-29T14:14:28.706Z,7.53
2019-04-29T14:21:13.787Z,6.83
2019-04-29T14:27:58.907Z,4.72
2019-04-29T14:34:57.578Z,6.43
2019-04-29T14:41:44.499Z,4.60
2019-04-29T14:48:42.037Z,4.57
2019-04-29T14:55:19.880Z,5.30
2019-04-29T15:02:16.205Z,4.33
2019-04-29T15:08:54.623Z,7.13
2019-04-29T15:15:41.438Z,5.93
2019-04-29T15:22:28.523Z,6.50
2019-04-29T15:29:13.955Z,5.97
2019-04-29T15:35:59.909Z,3.73
2019-04-29T15:42:49.135Z,9.17
2019-04-29T15:49:32.500Z,5.83
2019-04-29T15:56:28.219Z,3.70
2019-04-29T16:03:04.170Z,5.77
2019-04-29T16:09:52.128Z,6.20
2019-04-29T16:16:38.380Z,6.37
2019-04-29T16:23:23.334Z,5.10
2019-04-29T16:30:09.579Z,5.30
2019-04-29T16:36:54.874Z,9.35
2019-04-29T16:43:42.583Z,4.93
2019-04-29T16:50:27.898Z,6.08
2019-04-29T16:57:37.812Z,8.87
2019-04-29T17:04:22.848Z,6.43
2019-04-29T17:11:12.063Z,7.00
2019-04-29T17:17:56.242Z,7.97
2019-04-29T17:24:41.252Z,5.90
2019-04-29T17:31:31.281Z,5.93
2019-04-29T17:38:16.598Z,5.37
2019-04-29T17:45:10.498Z,7.47
2019-04-29T17:51:49.859Z,7.60
2019-04-29T17:58:51.272Z,8.30
2019-04-29T18:05:52.917Z,5.77
2019-04-29T18:12:26.286Z,5.17
2019-04-29T18:19:18.804Z,6.57
2019-04-29T18:26:06.225Z,10.23
2019-04-29T18:32:53.024Z,7.47
2019-04-29T18:39:38.602Z,9.60
2019-04-29T18:46:25.885Z,5.07
2019-04-29T18:53:11.455Z,7.23
2019-04-29T18:59:56.440Z,6.47
2019-04-29T19:06:41.966Z,7.33
2019-04-29T19:13:27.063Z,5.80
2019-04-29T19:20:16.679Z,7.63
2019-04-29T19:27:01.075Z,6.40
2019-04-29T19:33:47.107Z,7.53
2019-04-29T19:40:38.907Z,9.27
2019-04-29T19:47:18.835Z,9.07
2019-04-29T19:54:05.151Z,10.60
2019-04-29T20:00:51.800Z,10.10
2019-04-29T20:07:42.331Z,9.53
2019-04-29T20:14:29.656Z,8.00
2019-04-29T20:21:24.641Z,11.73
2019-04-29T20:28:06.050Z,8.87
2019-04-29T20:34:48.522Z,7.90
2019-04-29T20:41:40.696Z,9.67
2019-04-29T20:48:21.036Z,10.27
2019-04-29T20:55:09.287Z,8.37
2019-04-29T21:02:12.090Z,11.17
2019-04-29T21:08:50.958Z,11.73
2019-04-29T21:15:39.650Z,12.70
2019-04-29T21:22:26.049Z,14.27
2019-04-29T21:29:15.747Z,14.17
2019-04-29T21:35:59.442Z,13.13
2019-04-29T21:42:47.370Z,13.80
2019-04-29T21:49:43.273Z,16.87
2019-04-29T21:56:18.838Z,13.93
2019-04-29T22:03:05.409Z,15.87
2019-04-29T22:09:50.486Z,20.97
2019-04-29T22:16:35.672Z,17.03
2019-04-29T22:23:21.600Z,16.60
2019-04-29T22:30:10.247Z,18.17
2019-04-29T22:36:58.310Z,15.95
2019-04-29T22:43:46.958Z,17.43
2019-04-29T22:50:33.746Z,19.23
2019-04-29T22:57:22.969Z,18.83
2019-04-29T23:04:09.582Z,18.17
2019-04-29T23:10:52.495Z,21.17
2019-04-29T23:17:37.540Z,21.60
2019-04-29T23:24:40.303Z,23.93
2019-04-29T23:31:27.095Z,23.50
2019-04-29T23:38:12.950Z,29.10
2019-04-29T23:44:57.855Z,25.07
2019-04-29T23:51:42.741Z,26.87
2019-04-29T23:58:37.246Z,25.87
